sensor_id;sensor_type;location;lat;lon;timestamp;P1;durP1;ratioP1;P2;durP2;ratioP2
64225;SDS011;50545;56.064;26.178;2024-01-27T00:02:16;3.92;;;1.95;;
64225;SDS011;50545;56.064;26.178;2024-01-27T00:04:44;3.55;;;1.95;;
64225;SDS011;50545;56.064;26.178;2024-01-27T00:07:11;2.38;;;1.60;;
64225;SDS011;50545;56.064;26.178;2024-01-27T00:09:39;2.03;;;1.77;;
64225;SDS011;50545;56.064;26.178;2024-01-27T00:12:08;5.22;;;1.98;;
64225;SDS011;50545;56.064;26.178;2024-01-27T00:14:37;2.28;;;1.70;;
64225;SDS011;50545;56.064;26.178;2024-01-27T00:17:05;2.38;;;1.38;;
64225;SDS011;50545;56.064;26.178;2024-01-27T00:19:33;2.53;;;1.65;;
64225;SDS011;50545;56.064;26.178;2024-01-27T00:22:06;3.45;;;1.92;;
64225;SDS011;50545;56.064;26.178;2024-01-27T00:24:34;2.35;;;1.60;;
64225;SDS011;50545;56.064;26.178;2024-01-27T00:27:02;3.15;;;2.00;;
64225;SDS011;50545;56.064;26.178;2024-01-27T00:29:30;2.53;;;1.83;;
64225;SDS011;50545;56.064;26.178;2024-01-27T00:31:58;2.03;;;1.60;;
64225;SDS011;50545;56.064;26.178;2024-01-27T00:34:25;3.35;;;1.98;;
64225;SDS011;50545;56.064;26.178;2024-01-27T00:36:53;2.22;;;1.60;;
64225;SDS011;50545;56.064;26.178;2024-01-27T00:39:21;2.60;;;1.70;;
64225;SDS011;50545;56.064;26.178;2024-01-27T00:41:49;2.50;;;1.75;;
64225;SDS011;50545;56.064;26.178;2024-01-27T00:44:18;3.00;;;1.83;;
64225;SDS011;50545;56.064;26.178;2024-01-27T00:46:45;3.13;;;2.10;;
64225;SDS011;50545;56.064;26.178;2024-01-27T00:49:13;2.50;;;1.77;;
64225;SDS011;50545;56.064;26.178;2024-01-27T00:51:41;3.30;;;2.30;;
64225;SDS011;50545;56.064;26.178;2024-01-27T00:54:09;2.25;;;1.77;;
64225;SDS011;50545;56.064;26.178;2024-01-27T00:56:36;2.22;;;1.40;;
64225;SDS011;50545;56.064;26.178;2024-01-27T00:59:03;1.75;;;1.45;;
64225;SDS011;50545;56.064;26.178;2024-01-27T01:01:31;3.15;;;1.23;;
64225;SDS011;50545;56.064;26.178;2024-01-27T01:03:58;0.75;;;0.75;;
64225;SDS011;50545;56.064;26.178;2024-01-27T01:06:26;1.92;;;1.30;;
64225;SDS011;50545;56.064;26.178;2024-01-27T01:08:53;1.70;;;0.95;;
64225;SDS011;50545;56.064;26.178;2024-01-27T01:11:21;0.73;;;0.70;;
64225;SDS011;50545;56.064;26.178;2024-01-27T01:13:49;1.85;;;1.40;;
64225;SDS011;50545;56.064;26.178;2024-01-27T01:16:16;1.75;;;1.40;;
64225;SDS011;50545;56.064;26.178;2024-01-27T01:18:43;1.88;;;1.45;;
64225;SDS011;50545;56.064;26.178;2024-01-27T01:21:11;2.10;;;0.77;;
64225;SDS011;50545;56.064;26.178;2024-01-27T01:23:38;1.05;;;1.00;;
64225;SDS011;50545;56.064;26.178;2024-01-27T01:26:06;1.20;;;1.10;;
64225;SDS011;50545;56.064;26.178;2024-01-27T01:28:33;1.30;;;1.20;;
64225;SDS011;50545;56.064;26.178;2024-01-27T01:31:01;2.53;;;1.58;;
64225;SDS011;50545;56.064;26.178;2024-01-27T01:33:28;1.63;;;1.00;;
64225;SDS011;50545;56.064;26.178;2024-01-27T01:35:56;1.33;;;1.23;;
64225;SDS011;50545;56.064;26.178;2024-01-27T01:38:24;0.88;;;0.73;;
64225;SDS011;50545;56.064;26.178;2024-01-27T01:40:51;0.85;;;0.82;;
64225;SDS011;50545;56.064;26.178;2024-01-27T01:43:18;1.80;;;1.33;;
64225;SDS011;50545;56.064;26.178;2024-01-27T01:45:46;2.28;;;1.60;;
64225;SDS011;50545;56.064;26.178;2024-01-27T01:48:13;1.30;;;1.17;;
64225;SDS011;50545;56.064;26.178;2024-01-27T01:50:41;1.75;;;1.42;;
64225;SDS011;50545;56.064;26.178;2024-01-27T01:53:09;3.35;;;1.55;;
64225;SDS011;50545;56.064;26.178;2024-01-27T01:55:36;1.40;;;1.20;;
64225;SDS011;50545;56.064;26.178;2024-01-27T01:58:04;2.40;;;1.63;;
64225;SDS011;50545;56.064;26.178;2024-01-27T02:00:32;2.33;;;1.30;;
64225;SDS011;50545;56.064;26.178;2024-01-27T02:03:00;2.30;;;1.77;;
64225;SDS011;50545;56.064;26.178;2024-01-27T02:05:27;2.33;;;1.55;;
64225;SDS011;50545;56.064;26.178;2024-01-27T02:07:55;1.15;;;1.05;;
64225;SDS011;50545;56.064;26.178;2024-01-27T02:12:53;1.08;;;0.93;;
64225;SDS011;50545;56.064;26.178;2024-01-27T02:15:20;2.17;;;1.50;;
64225;SDS011;50545;56.064;26.178;2024-01-27T02:17:48;1.35;;;1.00;;
64225;SDS011;50545;56.064;26.178;2024-01-27T02:20:16;1.63;;;1.17;;
64225;SDS011;50545;56.064;26.178;2024-01-27T02:22:43;0.95;;;0.93;;
64225;SDS011;50545;56.064;26.178;2024-01-27T02:25:10;1.55;;;1.17;;
64225;SDS011;50545;56.064;26.178;2024-01-27T02:27:38;1.27;;;0.85;;
64225;SDS011;50545;56.064;26.178;2024-01-27T02:30:06;1.98;;;1.17;;
64225;SDS011;50545;56.064;26.178;2024-01-27T02:32:34;1.55;;;1.42;;
64225;SDS011;50545;56.064;26.178;2024-01-27T02:35:01;1.10;;;1.02;;
64225;SDS011;50545;56.064;26.178;2024-01-27T02:37:29;0.93;;;0.70;;
64225;SDS011;50545;56.064;26.178;2024-01-27T02:39:56;1.23;;;1.00;;
64225;SDS011;50545;56.064;26.178;2024-01-27T02:42:24;1.85;;;1.08;;
64225;SDS011;50545;56.064;26.178;2024-01-27T02:44:51;1.98;;;1.10;;
64225;SDS011;50545;56.064;26.178;2024-01-27T02:47:19;1.83;;;1.40;;
64225;SDS011;50545;56.064;26.178;2024-01-27T02:49:46;2.03;;;1.50;;
64225;SDS011;50545;56.064;26.178;2024-01-27T02:52:14;0.88;;;0.82;;
64225;SDS011;50545;56.064;26.178;2024-01-27T02:54:41;1.63;;;1.38;;
64225;SDS011;50545;56.064;26.178;2024-01-27T02:57:09;2.30;;;1.35;;
64225;SDS011;50545;56.064;26.178;2024-01-27T02:59:36;2.65;;;1.55;;
64225;SDS011;50545;56.064;26.178;2024-01-27T03:02:05;1.40;;;1.15;;
64225;SDS011;50545;56.064;26.178;2024-01-27T03:04:33;0.52;;;0.47;;
64225;SDS011;50545;56.064;26.178;2024-01-27T03:07:01;1.15;;;1.05;;
64225;SDS011;50545;56.064;26.178;2024-01-27T03:09:28;1.27;;;1.13;;
64225;SDS011;50545;56.064;26.178;2024-01-27T03:11:56;2.05;;;1.75;;
64225;SDS011;50545;56.064;26.178;2024-01-27T03:14:24;1.45;;;0.95;;
64225;SDS011;50545;56.064;26.178;2024-01-27T03:16:52;1.55;;;1.42;;
64225;SDS011;50545;56.064;26.178;2024-01-27T03:19:19;1.10;;;1.00;;
64225;SDS011;50545;56.064;26.178;2024-01-27T03:21:47;0.75;;;0.75;;
64225;SDS011;50545;56.064;26.178;2024-01-27T03:24:14;1.33;;;1.10;;
64225;SDS011;50545;56.064;26.178;2024-01-27T03:26:42;2.17;;;1.15;;
64225;SDS011;50545;56.064;26.178;2024-01-27T03:29:09;0.28;;;0.28;;
64225;SDS011;50545;56.064;26.178;2024-01-27T03:31:37;0.25;;;0.25;;
64225;SDS011;50545;56.064;26.178;2024-01-27T03:34:06;0.95;;;0.70;;
64225;SDS011;50545;56.064;26.178;2024-01-27T03:36:33;0.52;;;0.52;;
64225;SDS011;50545;56.064;26.178;2024-01-27T03:39:01;1.65;;;1.15;;
64225;SDS011;50545;56.064;26.178;2024-01-27T03:41:30;1.00;;;1.00;;
64225;SDS011;50545;56.064;26.178;2024-01-27T03:43:57;0.82;;;0.82;;
64225;SDS011;50545;56.064;26.178;2024-01-27T03:46:25;1.42;;;1.20;;
64225;SDS011;50545;56.064;26.178;2024-01-27T03:48:52;1.45;;;1.23;;
64225;SDS011;50545;56.064;26.178;2024-01-27T03:51:20;1.75;;;1.38;;
64225;SDS011;50545;56.064;26.178;2024-01-27T03:53:48;2.40;;;1.30;;
64225;SDS011;50545;56.064;26.178;2024-01-27T03:56:15;1.38;;;1.17;;
64225;SDS011;50545;56.064;26.178;2024-01-27T03:58:42;1.33;;;1.08;;
64225;SDS011;50545;56.064;26.178;2024-01-27T04:01:10;1.40;;;1.30;;
64225;SDS011;50545;56.064;26.178;2024-01-27T04:03:37;1.58;;;1.40;;
64225;SDS011;50545;56.064;26.178;2024-01-27T04:06:05;2.10;;;1.40;;
64225;SDS011;50545;56.064;26.178;2024-01-27T04:08:32;1.73;;;1.38;;
64225;SDS011;50545;56.064;26.178;2024-01-27T04:11:00;1.83;;;1.30;;
64225;SDS011;50545;56.064;26.178;2024-01-27T04:13:27;1.35;;;1.20;;
64225;SDS011;50545;56.064;26.178;2024-01-27T04:15:55;1.80;;;1.10;;
64225;SDS011;50545;56.064;26.178;2024-01-27T04:18:26;1.58;;;1.13;;
64225;SDS011;50545;56.064;26.178;2024-01-27T04:20:53;1.73;;;1.20;;
64225;SDS011;50545;56.064;26.178;2024-01-27T04:23:21;1.90;;;1.42;;
64225;SDS011;50545;56.064;26.178;2024-01-27T04:25:48;1.77;;;1.27;;
64225;SDS011;50545;56.064;26.178;2024-01-27T04:28:16;1.05;;;0.95;;
64225;SDS011;50545;56.064;26.178;2024-01-27T04:30:43;1.20;;;1.10;;
64225;SDS011;50545;56.064;26.178;2024-01-27T04:33:11;1.52;;;1.23;;
64225;SDS011;50545;56.064;26.178;2024-01-27T04:35:39;1.98;;;1.30;;
64225;SDS011;50545;56.064;26.178;2024-01-27T04:38:08;2.17;;;1.23;;
64225;SDS011;50545;56.064;26.178;2024-01-27T04:40:35;1.95;;;1.25;;
64225;SDS011;50545;56.064;26.178;2024-01-27T04:43:03;1.20;;;0.98;;
64225;SDS011;50545;56.064;26.178;2024-01-27T04:45:31;1.50;;;1.10;;
64225;SDS011;50545;56.064;26.178;2024-01-27T04:47:58;1.77;;;0.90;;
64225;SDS011;50545;56.064;26.178;2024-01-27T04:50:28;1.65;;;1.05;;
64225;SDS011;50545;56.064;26.178;2024-01-27T04:52:55;1.73;;;1.15;;
64225;SDS011;50545;56.064;26.178;2024-01-27T04:55:22;1.55;;;1.10;;
64225;SDS011;50545;56.064;26.178;2024-01-27T04:57:50;1.48;;;1.20;;
64225;SDS011;50545;56.064;26.178;2024-01-27T05:00:17;1.30;;;0.93;;
64225;SDS011;50545;56.064;26.178;2024-01-27T05:02:45;2.28;;;1.17;;
64225;SDS011;50545;56.064;26.178;2024-01-27T05:05:13;1.92;;;1.15;;
64225;SDS011;50545;56.064;26.178;2024-01-27T05:07:41;1.30;;;1.20;;
64225;SDS011;50545;56.064;26.178;2024-01-27T05:10:10;1.70;;;1.17;;
64225;SDS011;50545;56.064;26.178;2024-01-27T05:12:38;1.55;;;1.23;;
64225;SDS011;50545;56.064;26.178;2024-01-27T05:15:06;1.20;;;1.10;;
64225;SDS011;50545;56.064;26.178;2024-01-27T05:17:35;1.45;;;1.20;;
64225;SDS011;50545;56.064;26.178;2024-01-27T05:20:02;2.35;;;1.40;;
64225;SDS011;50545;56.064;26.178;2024-01-27T05:22:31;1.63;;;1.30;;
64225;SDS011;50545;56.064;26.178;2024-01-27T05:24:58;2.17;;;0.90;;
64225;SDS011;50545;56.064;26.178;2024-01-27T05:27:26;1.25;;;1.10;;
64225;SDS011;50545;56.064;26.178;2024-01-27T05:29:53;1.05;;;0.95;;
64225;SDS011;50545;56.064;26.178;2024-01-27T05:32:21;1.02;;;0.82;;
64225;SDS011;50545;56.064;26.178;2024-01-27T05:34:48;1.60;;;1.08;;
64225;SDS011;50545;56.064;26.178;2024-01-27T05:37:16;1.50;;;0.82;;
64225;SDS011;50545;56.064;26.178;2024-01-27T05:39:43;1.30;;;1.13;;
64225;SDS011;50545;56.064;26.178;2024-01-27T05:42:11;0.57;;;0.47;;
64225;SDS011;50545;56.064;26.178;2024-01-27T05:44:39;0.50;;;0.43;;
64225;SDS011;50545;56.064;26.178;2024-01-27T05:47:07;0.30;;;0.30;;
64225;SDS011;50545;56.064;26.178;2024-01-27T05:52:05;0.40;;;0.40;;
64225;SDS011;50545;56.064;26.178;2024-01-27T05:54:33;1.20;;;0.90;;
64225;SDS011;50545;56.064;26.178;2024-01-27T05:57:01;1.08;;;0.98;;
64225;SDS011;50545;56.064;26.178;2024-01-27T05:59:30;0.90;;;0.82;;
64225;SDS011;50545;56.064;26.178;2024-01-27T06:01:57;1.23;;;0.90;;
64225;SDS011;50545;56.064;26.178;2024-01-27T06:04:25;0.80;;;0.80;;
64225;SDS011;50545;56.064;26.178;2024-01-27T06:06:52;1.02;;;0.93;;
64225;SDS011;50545;56.064;26.178;2024-01-27T06:09:20;1.27;;;0.80;;
64225;SDS011;50545;56.064;26.178;2024-01-27T06:11:48;0.70;;;0.70;;
64225;SDS011;50545;56.064;26.178;2024-01-27T06:14:16;1.23;;;1.00;;
64225;SDS011;50545;56.064;26.178;2024-01-27T06:16:43;1.00;;;0.88;;
64225;SDS011;50545;56.064;26.178;2024-01-27T06:19:11;0.52;;;0.52;;
64225;SDS011;50545;56.064;26.178;2024-01-27T06:21:38;1.15;;;1.05;;
64225;SDS011;50545;56.064;26.178;2024-01-27T06:24:06;0.70;;;0.70;;
64225;SDS011;50545;56.064;26.178;2024-01-27T06:26:34;1.48;;;1.13;;
64225;SDS011;50545;56.064;26.178;2024-01-27T06:29:01;0.77;;;0.73;;
64225;SDS011;50545;56.064;26.178;2024-01-27T06:31:29;0.68;;;0.68;;
64225;SDS011;50545;56.064;26.178;2024-01-27T06:33:56;1.10;;;0.82;;
64225;SDS011;50545;56.064;26.178;2024-01-27T06:36:24;1.00;;;0.85;;
64225;SDS011;50545;56.064;26.178;2024-01-27T06:38:54;2.03;;;0.90;;
64225;SDS011;50545;56.064;26.178;2024-01-27T06:41:21;1.38;;;0.88;;
64225;SDS011;50545;56.064;26.178;2024-01-27T06:43:49;1.02;;;0.88;;
64225;SDS011;50545;56.064;26.178;2024-01-27T06:46:16;1.38;;;0.82;;
64225;SDS011;50545;56.064;26.178;2024-01-27T06:48:44;0.85;;;0.85;;
64225;SDS011;50545;56.064;26.178;2024-01-27T06:51:11;1.33;;;1.08;;
64225;SDS011;50545;56.064;26.178;2024-01-27T06:53:39;1.67;;;1.00;;
64225;SDS011;50545;56.064;26.178;2024-01-27T06:56:07;1.02;;;0.98;;
64225;SDS011;50545;56.064;26.178;2024-01-27T06:58:34;0.88;;;0.88;;
64225;SDS011;50545;56.064;26.178;2024-01-27T07:01:03;0.88;;;0.65;;
64225;SDS011;50545;56.064;26.178;2024-01-27T07:03:30;1.10;;;0.90;;
64225;SDS011;50545;56.064;26.178;2024-01-27T07:05:58;0.90;;;0.90;;
64225;SDS011;50545;56.064;26.178;2024-01-27T07:08:27;1.20;;;1.10;;
64225;SDS011;50545;56.064;26.178;2024-01-27T07:10:56;1.10;;;0.88;;
64225;SDS011;50545;56.064;26.178;2024-01-27T07:13:23;0.95;;;0.52;;
64225;SDS011;50545;56.064;26.178;2024-01-27T07:15:51;1.40;;;1.20;;
64225;SDS011;50545;56.064;26.178;2024-01-27T07:18:18;0.80;;;0.65;;
64225;SDS011;50545;56.064;26.178;2024-01-27T07:20:46;0.77;;;0.65;;
64225;SDS011;50545;56.064;26.178;2024-01-27T07:23:14;2.17;;;1.27;;
64225;SDS011;50545;56.064;26.178;2024-01-27T07:25:41;1.85;;;1.20;;
64225;SDS011;50545;56.064;26.178;2024-01-27T07:28:09;1.80;;;1.20;;
64225;SDS011;50545;56.064;26.178;2024-01-27T07:30:36;0.90;;;0.90;;
64225;SDS011;50545;56.064;26.178;2024-01-27T07:33:05;1.25;;;1.10;;
64225;SDS011;50545;56.064;26.178;2024-01-27T07:35:32;1.15;;;0.82;;
64225;SDS011;50545;56.064;26.178;2024-01-27T07:38:00;1.45;;;1.23;;
64225;SDS011;50545;56.064;26.178;2024-01-27T07:40:27;1.08;;;0.68;;
64225;SDS011;50545;56.064;26.178;2024-01-27T07:42:55;1.70;;;0.85;;
64225;SDS011;50545;56.064;26.178;2024-01-27T07:45:22;0.85;;;0.85;;
64225;SDS011;50545;56.064;26.178;2024-01-27T07:47:50;1.23;;;1.10;;
64225;SDS011;50545;56.064;26.178;2024-01-27T07:50:17;1.73;;;1.27;;
64225;SDS011;50545;56.064;26.178;2024-01-27T07:52:45;0.55;;;0.52;;
64225;SDS011;50545;56.064;26.178;2024-01-27T07:55:12;1.25;;;1.00;;
64225;SDS011;50545;56.064;26.178;2024-01-27T07:57:40;1.00;;;0.90;;
64225;SDS011;50545;56.064;26.178;2024-01-27T08:00:08;2.17;;;1.25;;
64225;SDS011;50545;56.064;26.178;2024-01-27T08:02:36;1.40;;;1.27;;
64225;SDS011;50545;56.064;26.178;2024-01-27T08:05:03;1.02;;;0.93;;
64225;SDS011;50545;56.064;26.178;2024-01-27T08:07:31;1.08;;;0.98;;
64225;SDS011;50545;56.064;26.178;2024-01-27T08:09:59;0.82;;;0.80;;
64225;SDS011;50545;56.064;26.178;2024-01-27T08:12:26;0.88;;;0.63;;
64225;SDS011;50545;56.064;26.178;2024-01-27T08:14:54;0.85;;;0.82;;
64225;SDS011;50545;56.064;26.178;2024-01-27T08:17:21;0.93;;;0.73;;
64225;SDS011;50545;56.064;26.178;2024-01-27T08:19:49;0.95;;;0.90;;
64225;SDS011;50545;56.064;26.178;2024-01-27T08:22:17;0.50;;;0.50;;
64225;SDS011;50545;56.064;26.178;2024-01-27T08:24:44;0.95;;;0.82;;
64225;SDS011;50545;56.064;26.178;2024-01-27T08:27:12;1.63;;;1.05;;
64225;SDS011;50545;56.064;26.178;2024-01-27T08:29:39;0.90;;;0.90;;
64225;SDS011;50545;56.064;26.178;2024-01-27T08:32:07;1.33;;;1.23;;
64225;SDS011;50545;56.064;26.178;2024-01-27T08:34:34;1.20;;;1.00;;
64225;SDS011;50545;56.064;26.178;2024-01-27T08:37:02;1.35;;;1.08;;
64225;SDS011;50545;56.064;26.178;2024-01-27T08:39:40;1.15;;;0.95;;
64225;SDS011;50545;56.064;26.178;2024-01-27T08:42:08;1.65;;;0.93;;
64225;SDS011;50545;56.064;26.178;2024-01-27T08:44:35;1.20;;;0.88;;
64225;SDS011;50545;56.064;26.178;2024-01-27T08:47:02;0.80;;;0.80;;
64225;SDS011;50545;56.064;26.178;2024-01-27T08:49:33;1.10;;;1.00;;
64225;SDS011;50545;56.064;26.178;2024-01-27T08:52:01;1.17;;;1.08;;
64225;SDS011;50545;56.064;26.178;2024-01-27T08:54:29;1.38;;;1.27;;
64225;SDS011;50545;56.064;26.178;2024-01-27T08:56:57;0.40;;;0.40;;
64225;SDS011;50545;56.064;26.178;2024-01-27T08:59:25;1.10;;;0.82;;
64225;SDS011;50545;56.064;26.178;2024-01-27T09:01:52;0.98;;;0.88;;
64225;SDS011;50545;56.064;26.178;2024-01-27T09:04:19;1.38;;;0.73;;
64225;SDS011;50545;56.064;26.178;2024-01-27T09:06:47;1.88;;;1.15;;
64225;SDS011;50545;56.064;26.178;2024-01-27T09:09:15;1.67;;;1.40;;
64225;SDS011;50545;56.064;26.178;2024-01-27T09:11:42;1.35;;;1.23;;
64225;SDS011;50545;56.064;26.178;2024-01-27T09:14:10;1.35;;;1.25;;
64225;SDS011;50545;56.064;26.178;2024-01-27T09:16:37;0.65;;;0.65;;
64225;SDS011;50545;56.064;26.178;2024-01-27T09:19:07;0.50;;;0.50;;
64225;SDS011;50545;56.064;26.178;2024-01-27T09:21:35;0.85;;;0.77;;
64225;SDS011;50545;56.064;26.178;2024-01-27T09:24:04;0.60;;;0.60;;
64225;SDS011;50545;56.064;26.178;2024-01-27T09:26:31;0.70;;;0.70;;
64225;SDS011;50545;56.064;26.178;2024-01-27T09:28:59;0.88;;;0.88;;
64225;SDS011;50545;56.064;26.178;2024-01-27T09:31:26;0.98;;;0.73;;
64225;SDS011;50545;56.064;26.178;2024-01-27T09:33:55;0.73;;;0.70;;
64225;SDS011;50545;56.064;26.178;2024-01-27T09:36:23;1.50;;;1.17;;
64225;SDS011;50545;56.064;26.178;2024-01-27T09:38:50;1.67;;;1.17;;
64225;SDS011;50545;56.064;26.178;2024-01-27T09:41:18;1.33;;;1.02;;
64225;SDS011;50545;56.064;26.178;2024-01-27T09:43:46;1.55;;;1.10;;
64225;SDS011;50545;56.064;26.178;2024-01-27T09:46:14;1.13;;;1.02;;
64225;SDS011;50545;56.064;26.178;2024-01-27T09:48:42;0.90;;;0.90;;
64225;SDS011;50545;56.064;26.178;2024-01-27T09:51:11;0.85;;;0.82;;
64225;SDS011;50545;56.064;26.178;2024-01-27T09:53:39;1.65;;;1.25;;
64225;SDS011;50545;56.064;26.178;2024-01-27T09:56:07;1.67;;;1.25;;
64225;SDS011;50545;56.064;26.178;2024-01-27T09:58:35;1.13;;;0.88;;
64225;SDS011;50545;56.064;26.178;2024-01-27T10:01:03;1.52;;;1.35;;
64225;SDS011;50545;56.064;26.178;2024-01-27T10:03:32;1.25;;;1.15;;
64225;SDS011;50545;56.064;26.178;2024-01-27T10:06:01;1.55;;;1.23;;
64225;SDS011;50545;56.064;26.178;2024-01-27T10:08:31;1.80;;;1.33;;
64225;SDS011;50545;56.064;26.178;2024-01-27T10:10:58;0.82;;;0.75;;
64225;SDS011;50545;56.064;26.178;2024-01-27T10:13:26;1.42;;;1.33;;
64225;SDS011;50545;56.064;26.178;2024-01-27T10:16:06;1.45;;;1.17;;
64225;SDS011;50545;56.064;26.178;2024-01-27T10:18:35;1.20;;;1.15;;
64225;SDS011;50545;56.064;26.178;2024-01-27T10:21:18;1.70;;;1.15;;
64225;SDS011;50545;56.064;26.178;2024-01-27T10:23:47;1.52;;;1.23;;
64225;SDS011;50545;56.064;26.178;2024-01-27T10:26:15;1.20;;;1.08;;
64225;SDS011;50545;56.064;26.178;2024-01-27T10:28:42;1.52;;;1.08;;
64225;SDS011;50545;56.064;26.178;2024-01-27T10:31:10;2.15;;;1.30;;
64225;SDS011;50545;56.064;26.178;2024-01-27T10:33:38;2.08;;;1.55;;
64225;SDS011;50545;56.064;26.178;2024-01-27T10:36:06;1.77;;;1.30;;
64225;SDS011;50545;56.064;26.178;2024-01-27T10:38:37;1.98;;;1.30;;
64225;SDS011;50545;56.064;26.178;2024-01-27T10:41:09;2.40;;;1.30;;
64225;SDS011;50545;56.064;26.178;2024-01-27T10:43:38;3.00;;;1.25;;
64225;SDS011;50545;56.064;26.178;2024-01-27T10:46:07;1.58;;;1.05;;
64225;SDS011;50545;56.064;26.178;2024-01-27T10:48:35;0.75;;;0.75;;
64225;SDS011;50545;56.064;26.178;2024-01-27T10:51:06;1.48;;;1.17;;
64225;SDS011;50545;56.064;26.178;2024-01-27T10:53:35;1.25;;;0.88;;
64225;SDS011;50545;56.064;26.178;2024-01-27T10:56:06;1.33;;;0.90;;
64225;SDS011;50545;56.064;26.178;2024-01-27T10:58:37;2.13;;;1.65;;
64225;SDS011;50545;56.064;26.178;2024-01-27T11:01:11;1.02;;;1.02;;
64225;SDS011;50545;56.064;26.178;2024-01-27T11:03:41;1.77;;;1.35;;
64225;SDS011;50545;56.064;26.178;2024-01-27T11:06:10;2.83;;;1.40;;
64225;SDS011;50545;56.064;26.178;2024-01-27T11:08:39;2.22;;;1.60;;
64225;SDS011;50545;56.064;26.178;2024-01-27T11:11:10;1.40;;;1.02;;
64225;SDS011;50545;56.064;26.178;2024-01-27T11:13:37;1.13;;;0.88;;
64225;SDS011;50545;56.064;26.178;2024-01-27T11:16:12;1.55;;;1.20;;
64225;SDS011;50545;56.064;26.178;2024-01-27T11:18:44;1.42;;;1.30;;
64225;SDS011;50545;56.064;26.178;2024-01-27T11:21:13;1.45;;;1.35;;
64225;SDS011;50545;56.064;26.178;2024-01-27T11:23:42;2.03;;;1.30;;
64225;SDS011;50545;56.064;26.178;2024-01-27T11:26:16;1.90;;;1.58;;
64225;SDS011;50545;56.064;26.178;2024-01-27T11:28:46;1.48;;;1.27;;
64225;SDS011;50545;56.064;26.178;2024-01-27T11:31:16;2.55;;;1.67;;
64225;SDS011;50545;56.064;26.178;2024-01-27T11:33:50;2.83;;;1.70;;
64225;SDS011;50545;56.064;26.178;2024-01-27T11:36:22;1.75;;;1.40;;
64225;SDS011;50545;56.064;26.178;2024-01-27T11:38:51;2.63;;;1.52;;
64225;SDS011;50545;56.064;26.178;2024-01-27T11:41:23;2.83;;;1.50;;
64225;SDS011;50545;56.064;26.178;2024-01-27T11:43:55;1.23;;;1.08;;
64225;SDS011;50545;56.064;26.178;2024-01-27T11:46:24;2.63;;;1.60;;
64225;SDS011;50545;56.064;26.178;2024-01-27T11:48:52;2.55;;;1.67;;
64225;SDS011;50545;56.064;26.178;2024-01-27T11:51:20;3.08;;;1.63;;
64225;SDS011;50545;56.064;26.178;2024-01-27T11:53:50;2.67;;;1.85;;
64225;SDS011;50545;56.064;26.178;2024-01-27T11:56:17;0.80;;;0.77;;
64225;SDS011;50545;56.064;26.178;2024-01-27T11:58:46;2.45;;;1.60;;
64225;SDS011;50545;56.064;26.178;2024-01-27T12:01:17;3.08;;;1.85;;
64225;SDS011;50545;56.064;26.178;2024-01-27T12:03:45;1.55;;;1.23;;
64225;SDS011;50545;56.064;26.178;2024-01-27T12:06:14;1.17;;;1.05;;
64225;SDS011;50545;56.064;26.178;2024-01-27T12:08:42;2.90;;;1.55;;
64225;SDS011;50545;56.064;26.178;2024-01-27T12:11:16;1.20;;;1.10;;
64225;SDS011;50545;56.064;26.178;2024-01-27T12:13:50;3.35;;;2.00;;
64225;SDS011;50545;56.064;26.178;2024-01-27T12:16:19;1.80;;;1.30;;
64225;SDS011;50545;56.064;26.178;2024-01-27T12:18:51;2.15;;;1.52;;
64225;SDS011;50545;56.064;26.178;2024-01-27T12:21:21;1.80;;;1.30;;
64225;SDS011;50545;56.064;26.178;2024-01-27T12:23:56;1.65;;;1.40;;
64225;SDS011;50545;56.064;26.178;2024-01-27T12:26:28;1.52;;;1.13;;
64225;SDS011;50545;56.064;26.178;2024-01-27T12:28:57;2.63;;;1.55;;
64225;SDS011;50545;56.064;26.178;2024-01-27T12:31:25;1.48;;;1.25;;
64225;SDS011;50545;56.064;26.178;2024-01-27T12:33:54;1.63;;;1.50;;
64225;SDS011;50545;56.064;26.178;2024-01-27T12:36:23;1.52;;;1.38;;
64225;SDS011;50545;56.064;26.178;2024-01-27T12:38:55;2.15;;;1.35;;
64225;SDS011;50545;56.064;26.178;2024-01-27T12:41:27;1.98;;;1.27;;
64225;SDS011;50545;56.064;26.178;2024-01-27T12:43:56;2.10;;;1.40;;
64225;SDS011;50545;56.064;26.178;2024-01-27T12:46:24;1.67;;;1.30;;
64225;SDS011;50545;56.064;26.178;2024-01-27T12:48:52;2.40;;;1.52;;
64225;SDS011;50545;56.064;26.178;2024-01-27T12:51:20;3.05;;;1.67;;
64225;SDS011;50545;56.064;26.178;2024-01-27T12:53:47;2.58;;;1.55;;
64225;SDS011;50545;56.064;26.178;2024-01-27T12:56:15;2.72;;;1.83;;
64225;SDS011;50545;56.064;26.178;2024-01-27T12:58:42;3.65;;;2.00;;
64225;SDS011;50545;56.064;26.178;2024-01-27T13:01:10;1.60;;;1.40;;
64225;SDS011;50545;56.064;26.178;2024-01-27T13:03:38;2.25;;;1.65;;
64225;SDS011;50545;56.064;26.178;2024-01-27T13:06:11;2.22;;;1.58;;
64225;SDS011;50545;56.064;26.178;2024-01-27T13:08:40;3.03;;;1.83;;
64225;SDS011;50545;56.064;26.178;2024-01-27T13:11:08;3.15;;;1.75;;
64225;SDS011;50545;56.064;26.178;2024-01-27T13:13:36;1.45;;;1.25;;
64225;SDS011;50545;56.064;26.178;2024-01-27T13:16:04;3.30;;;1.65;;
64225;SDS011;50545;56.064;26.178;2024-01-27T13:18:32;1.65;;;1.30;;
64225;SDS011;50545;56.064;26.178;2024-01-27T13:21:00;2.45;;;1.70;;
64225;SDS011;50545;56.064;26.178;2024-01-27T13:23:27;2.85;;;1.80;;
64225;SDS011;50545;56.064;26.178;2024-01-27T13:25:55;1.58;;;1.33;;
64225;SDS011;50545;56.064;26.178;2024-01-27T13:28:42;1.65;;;1.40;;
64225;SDS011;50545;56.064;26.178;2024-01-27T13:31:10;3.58;;;1.80;;
64225;SDS011;50545;56.064;26.178;2024-01-27T13:33:37;1.83;;;1.23;;
64225;SDS011;50545;56.064;26.178;2024-01-27T13:36:05;1.70;;;1.30;;
64225;SDS011;50545;56.064;26.178;2024-01-27T13:38:33;5.10;;;1.88;;
64225;SDS011;50545;56.064;26.178;2024-01-27T13:41:02;2.33;;;1.52;;
64225;SDS011;50545;56.064;26.178;2024-01-27T13:43:30;1.30;;;1.10;;
64225;SDS011;50545;56.064;26.178;2024-01-27T13:45:58;2.90;;;1.80;;
64225;SDS011;50545;56.064;26.178;2024-01-27T13:48:25;1.70;;;1.33;;
64225;SDS011;50545;56.064;26.178;2024-01-27T13:50:53;1.50;;;1.30;;
64225;SDS011;50545;56.064;26.178;2024-01-27T13:53:21;1.52;;;1.42;;
64225;SDS011;50545;56.064;26.178;2024-01-27T13:56:08;2.28;;;1.42;;
64225;SDS011;50545;56.064;26.178;2024-01-27T13:58:35;1.17;;;1.08;;
64225;SDS011;50545;56.064;26.178;2024-01-27T14:01:03;2.03;;;1.30;;
64225;SDS011;50545;56.064;26.178;2024-01-27T14:03:31;2.40;;;1.63;;
64225;SDS011;50545;56.064;26.178;2024-01-27T14:05:58;2.97;;;1.42;;
64225;SDS011;50545;56.064;26.178;2024-01-27T14:08:26;2.45;;;1.63;;
64225;SDS011;50545;56.064;26.178;2024-01-27T14:10:53;2.47;;;1.55;;
64225;SDS011;50545;56.064;26.178;2024-01-27T14:13:21;2.15;;;1.38;;
64225;SDS011;50545;56.064;26.178;2024-01-27T14:15:48;2.72;;;1.50;;
64225;SDS011;50545;56.064;26.178;2024-01-27T14:18:16;1.88;;;1.40;;
64225;SDS011;50545;56.064;26.178;2024-01-27T14:20:48;2.50;;;1.35;;
64225;SDS011;50545;56.064;26.178;2024-01-27T14:23:17;1.33;;;1.00;;
64225;SDS011;50545;56.064;26.178;2024-01-27T14:25:45;1.52;;;0.95;;
64225;SDS011;50545;56.064;26.178;2024-01-27T14:28:14;1.10;;;1.00;;
64225;SDS011;50545;56.064;26.178;2024-01-27T14:30:41;1.30;;;1.20;;
64225;SDS011;50545;56.064;26.178;2024-01-27T14:33:11;3.30;;;1.70;;
64225;SDS011;50545;56.064;26.178;2024-01-27T14:35:39;1.45;;;1.10;;
64225;SDS011;50545;56.064;26.178;2024-01-27T14:38:07;2.17;;;1.50;;
64225;SDS011;50545;56.064;26.178;2024-01-27T14:40:36;2.58;;;1.60;;
64225;SDS011;50545;56.064;26.178;2024-01-27T14:43:04;2.40;;;1.65;;
64225;SDS011;50545;56.064;26.178;2024-01-27T14:45:36;2.65;;;1.60;;